createdAt,value
2018-11-05T00:00:46.072Z,26.85
2018-11-05T00:03:14.959Z,28.70
2018-11-05T00:05:43.098Z,24.45
2018-11-05T00:08:11.389Z,26.65
2018-11-05T00:10:39.680Z,25.25
2018-11-05T00:13:07.894Z,28.12
2018-11-05T00:15:36.198Z,26.93
2018-11-05T00:18:04.507Z,26.60
2018-11-05T00:20:32.830Z,28.20
2018-11-05T00:23:01.236Z,27.17
2018-11-05T00:25:29.420Z,27.52
2018-11-05T00:27:57.659Z,27.00
2018-11-05T00:30:26.672Z,26.48
2018-11-05T00:32:54.882Z,27.22
2018-11-05T00:35:23.019Z,25.37
2018-11-05T00:37:51.286Z,26.60
2018-11-05T00:40:19.419Z,25.52
2018-11-05T00:42:47.717Z,25.23
2018-11-05T00:45:16.135Z,23.95
2018-11-05T00:47:44.697Z,24.12
2018-11-05T00:50:14.356Z,24.70
2018-11-05T00:52:42.867Z,24.43
2018-11-05T00:55:11.851Z,23.90
2018-11-05T00:57:40.208Z,24.02
2018-11-05T01:00:10.471Z,24.15
2018-11-05T01:02:39.034Z,25.12
2018-11-05T01:05:08.117Z,23.50
2018-11-05T01:07:36.477Z,24.27
2018-11-05T01:10:05.036Z,24.02
2018-11-05T01:12:33.188Z,24.32
2018-11-05T01:15:01.579Z,22.37
2018-11-05T01:17:29.840Z,23.85
2018-11-05T01:19:58.929Z,22.98
2018-11-05T01:22:27.225Z,23.42
2018-11-05T01:24:55.358Z,24.30
2018-11-05T01:27:24.197Z,22.73
2018-11-05T01:29:52.461Z,23.22
2018-11-05T01:32:21.782Z,22.05
2018-11-05T01:34:50.130Z,21.35
2018-11-05T01:37:18.563Z,22.77
2018-11-05T01:39:46.681Z,22.87
2018-11-05T01:42:14.813Z,21.48
2018-11-05T01:44:42.964Z,21.48
2018-11-05T01:47:11.549Z,21.12
2018-11-05T01:49:39.780Z,22.30
2018-11-05T01:52:08.379Z,21.37
2018-11-05T01:54:36.553Z,21.12
2018-11-05T01:57:05.107Z,19.77
2018-11-05T01:59:33.338Z,21.82
2018-11-05T02:02:01.672Z,21.68
2018-11-05T02:04:30.043Z,22.25
2018-11-05T02:06:58.323Z,22.00
2018-11-05T02:09:26.467Z,21.87
2018-11-05T02:11:54.681Z,20.82
2018-11-05T02:14:22.906Z,20.48
2018-11-05T02:16:51.061Z,20.80
2018-11-05T02:19:19.246Z,22.32
2018-11-05T02:21:47.390Z,20.62
2018-11-05T02:24:15.562Z,20.25
2018-11-05T02:26:43.754Z,19.32
2018-11-05T02:29:11.901Z,24.20
2018-11-05T02:31:40.111Z,22.40
2018-11-05T02:34:08.271Z,20.97
2018-11-05T02:36:36.530Z,21.57
2018-11-05T02:39:07.314Z,23.55
2018-11-05T02:41:35.566Z,21.73
2018-11-05T02:44:03.714Z,20.60
2018-11-05T02:46:31.845Z,21.50
2018-11-05T02:49:00.062Z,21.90
2018-11-05T02:51:28.205Z,20.32
2018-11-05T02:53:56.347Z,23.00
2018-11-05T02:56:24.582Z,19.82
2018-11-05T02:58:52.715Z,20.37
2018-11-05T03:01:20.870Z,20.05
2018-11-05T03:03:49.035Z,20.77
2018-11-05T03:06:17.255Z,18.27
2018-11-05T03:08:45.426Z,18.87
2018-11-05T03:11:13.614Z,20.55
2018-11-05T03:13:41.773Z,19.65
2018-11-05T03:16:09.914Z,21.60
2018-11-05T03:18:38.074Z,18.98
2018-11-05T03:21:06.203Z,20.27
2018-11-05T03:23:34.366Z,22.95
2018-11-05T03:26:02.518Z,20.00
2018-11-05T03:28:30.662Z,19.10
2018-11-05T03:30:58.850Z,23.45
2018-11-05T03:33:26.986Z,20.48
2018-11-05T03:35:55.178Z,19.92
2018-11-05T03:38:23.316Z,19.85
2018-11-05T03:40:51.463Z,19.05
2018-11-05T03:43:19.625Z,17.48
2018-11-05T03:45:47.847Z,16.70
2018-11-05T03:48:15.986Z,17.90
2018-11-05T03:50:44.139Z,19.02
2018-11-05T03:53:12.360Z,20.80
2018-11-05T03:55:40.579Z,17.65
2018-11-05T03:58:08.660Z,18.20
2018-11-05T04:00:36.819Z,18.00
2018-11-05T04:03:05.132Z,19.37
2018-11-05T04:05:33.319Z,19.48
2018-11-05T04:08:01.489Z,19.73
2018-11-05T04:10:29.655Z,20.27
2018-11-05T04:12:57.810Z,19.07
2018-11-05T04:15:26.063Z,21.27
2018-11-05T04:17:54.144Z,18.77
2018-11-05T04:20:22.281Z,20.12
2018-11-05T04:22:50.446Z,18.20
2018-11-05T04:25:18.602Z,18.57
2018-11-05T04:27:46.913Z,19.65
2018-11-05T04:30:15.762Z,22.45
2018-11-05T04:32:44.145Z,19.27
2018-11-05T04:35:12.848Z,20.32
2018-11-05T04:37:41.026Z,19.48
2018-11-05T04:40:10.444Z,21.07
2018-11-05T04:42:38.597Z,20.12
2018-11-05T04:45:08.083Z,18.32
2018-11-05T04:47:36.276Z,19.50
2018-11-05T04:50:05.204Z,18.32
2018-11-05T04:52:33.435Z,18.02
2018-11-05T04:55:01.650Z,18.77
2018-11-05T04:57:29.886Z,19.00
2018-11-05T04:59:58.062Z,17.85
2018-11-05T05:02:26.247Z,19.82
2018-11-05T05:04:54.385Z,19.50
2018-11-05T05:07:22.585Z,19.45
2018-11-05T05:09:50.752Z,20.77
2018-11-05T05:12:18.901Z,22.77
2018-11-05T05:14:47.152Z,21.02
2018-11-05T05:17:15.304Z,21.48
2018-11-05T05:19:43.538Z,20.95
2018-11-05T05:22:11.712Z,23.70
2018-11-05T05:24:39.869Z,24.55
2018-11-05T05:27:08.018Z,20.70
2018-11-05T05:29:36.172Z,21.02
2018-11-05T05:32:04.502Z,23.12
2018-11-05T05:34:34.122Z,23.22
2018-11-05T05:37:02.343Z,23.35
2018-11-05T05:39:30.566Z,23.05
2018-11-05T05:41:58.721Z,26.35
2018-11-05T05:44:26.858Z,21.33
2018-11-05T05:46:55.089Z,22.65
2018-11-05T05:49:23.462Z,20.88
2018-11-05T05:51:51.605Z,20.52
2018-11-05T05:54:19.794Z,21.42
2018-11-05T05:56:47.946Z,19.40
2018-11-05T05:59:16.091Z,18.50
2018-11-05T06:01:44.250Z,19.05
2018-11-05T06:04:12.413Z,16.42
2018-11-05T06:06:40.664Z,17.60
2018-11-05T06:09:09.791Z,18.82
2018-11-05T06:11:38.246Z,19.50
2018-11-05T06:14:06.595Z,19.92
2018-11-05T06:16:35.426Z,18.73
2018-11-05T06:19:03.713Z,16.30
2018-11-05T06:21:31.851Z,18.23
2018-11-05T06:24:00.165Z,20.30
2018-11-05T06:26:28.296Z,22.77
2018-11-05T06:28:56.445Z,21.77
2018-11-05T06:31:24.637Z,21.75
2018-11-05T06:33:52.822Z,21.55
2018-11-05T06:36:20.992Z,21.97
2018-11-05T06:38:49.167Z,23.05
2018-11-05T06:41:17.427Z,23.32
2018-11-05T06:43:45.548Z,23.90
2018-11-05T06:46:13.729Z,22.42
2018-11-05T06:48:41.924Z,21.97
2018-11-05T06:51:10.010Z,25.70
2018-11-05T06:53:38.150Z,23.65
2018-11-05T06:56:06.471Z,27.48
2018-11-05T06:58:34.683Z,18.48
2018-11-05T07:01:03.750Z,18.60
2018-11-05T07:03:31.971Z,23.73
2018-11-05T07:06:00.156Z,18.57
2018-11-05T07:08:28.274Z,19.12
2018-11-05T07:10:56.467Z,20.82
2018-11-05T07:13:24.643Z,21.15
2018-11-05T07:15:53.626Z,25.80
2018-11-05T07:18:21.838Z,25.68
2018-11-05T07:20:49.907Z,26.25
2018-11-05T07:23:18.063Z,26.68
2018-11-05T07:25:46.194Z,20.97
2018-11-05T07:28:14.367Z,25.48
2018-11-05T07:30:42.959Z,26.02
2018-11-05T07:33:11.148Z,24.00
2018-11-05T07:35:39.234Z,22.20
2018-11-05T07:38:07.413Z,25.25
2018-11-05T07:40:35.548Z,26.80
2018-11-05T07:43:03.794Z,24.15
2018-11-05T07:45:31.949Z,23.12
2018-11-05T07:48:00.095Z,24.55
2018-11-05T07:50:28.319Z,24.23
2018-11-05T07:52:56.402Z,27.07
2018-11-05T07:55:24.609Z,24.50
2018-11-05T07:57:52.983Z,23.02
2018-11-05T08:00:55.066Z,23.73
2018-11-05T08:03:23.885Z,25.55
2018-11-05T08:05:52.054Z,24.63
2018-11-05T08:08:20.281Z,22.52
2018-11-05T08:10:48.398Z,22.05
2018-11-05T08:13:16.576Z,22.87
2018-11-05T08:15:44.708Z,22.85
2018-11-05T08:18:12.845Z,23.62
2018-11-05T08:20:40.990Z,24.92
2018-11-05T08:23:09.194Z,22.27
2018-11-05T08:25:37.333Z,22.40
2018-11-05T08:28:05.713Z,26.50
2018-11-05T08:30:33.966Z,26.62
2018-11-05T08:33:02.111Z,22.67
2018-11-05T08:35:30.261Z,23.30
2018-11-05T08:37:58.413Z,22.75
2018-11-05T08:40:27.342Z,22.82
2018-11-05T08:42:56.051Z,22.40
2018-11-05T08:45:25.458Z,25.05
2018-11-05T08:47:53.579Z,22.62
2018-11-05T08:50:22.745Z,21.30
2018-11-05T08:52:50.776Z,26.12
2018-11-05T08:55:20.397Z,23.80
2018-11-05T08:57:48.653Z,21.55
2018-11-05T09:00:22.895Z,25.65
2018-11-05T09:02:51.369Z,26.17
2018-11-05T09:05:19.686Z,26.55
2018-11-05T09:07:49.370Z,25.27
2018-11-05T09:10:17.735Z,25.52
2018-11-05T09:12:45.678Z,25.45
2018-11-05T09:15:15.212Z,27.98
2018-11-05T09:17:44.084Z,22.73
2018-11-05T09:20:13.495Z,27.62
2018-11-05T09:22:41.874Z,25.35
2018-11-05T09:25:11.067Z,27.82
2018-11-05T09:27:39.264Z,26.40
2018-11-05T09:30:09.882Z,23.42
2018-11-05T09:32:38.029Z,23.73
2018-11-05T09:35:06.688Z,23.25
2018-11-05T09:37:34.922Z,24.92
2018-11-05T09:40:03.105Z,27.70
2018-11-05T09:42:31.424Z,24.40
2018-11-05T09:44:59.542Z,25.32
2018-11-05T09:47:27.704Z,25.15
2018-11-05T09:49:55.862Z,22.15
2018-11-05T09:52:24.042Z,24.45
2018-11-05T09:54:52.203Z,25.37
2018-11-05T09:57:20.474Z,23.92
2018-11-05T09:59:48.527Z,23.52
2018-11-05T10:02:16.675Z,26.95
2018-11-05T10:04:45.234Z,24.00
2018-11-05T10:07:13.133Z,25.30
2018-11-05T10:09:41.319Z,24.47
2018-11-05T10:12:09.446Z,23.62
2018-11-05T10:14:38.310Z,24.02
2018-11-05T10:17:07.059Z,24.65
2018-11-05T10:19:35.191Z,25.48
2018-11-05T10:22:03.363Z,22.02
2018-11-05T10:24:31.587Z,22.42
2018-11-05T10:26:59.722Z,25.07
2018-11-05T10:29:27.902Z,23.85
2018-11-05T10:31:56.043Z,27.15
2018-11-05T10:34:24.198Z,22.67
2018-11-05T10:36:52.383Z,22.43
2018-11-05T10:39:20.537Z,23.12
2018-11-05T10:41:48.670Z,24.00
2018-11-05T10:44:16.906Z,26.40
2018-11-05T10:46:44.995Z,22.65
2018-11-05T10:49:13.131Z,23.25
2018-11-05T10:51:41.425Z,22.55
2018-11-05T10:54:09.498Z,22.27
2018-11-05T10:56:37.678Z,21.75
2018-11-05T10:59:05.918Z,20.80
2018-11-05T11:01:39.373Z,22.85
2018-11-05T11:04:12.935Z,21.50
2018-11-05T11:06:41.086Z,20.52
2018-11-05T11:09:09.402Z,21.87
2018-11-05T11:11:37.558Z,21.02
2018-11-05T11:14:05.701Z,19.75
2018-11-05T11:16:33.842Z,20.68
2018-11-05T11:19:02.053Z,24.92
2018-11-05T11:21:30.278Z,24.00
2018-11-05T11:23:58.479Z,22.93
2018-11-05T11:26:26.641Z,26.23
2018-11-05T11:28:54.859Z,21.35
2018-11-05T11:31:22.966Z,24.60
2018-11-05T11:33:51.157Z,27.22
2018-11-05T11:36:19.522Z,27.07
2018-11-05T11:38:47.680Z,25.27
2018-11-05T11:41:15.891Z,23.95
2018-11-05T11:43:44.042Z,23.85
2018-11-05T11:46:12.194Z,23.45
2018-11-05T11:48:40.357Z,24.65
2018-11-05T11:51:08.513Z,27.73
2018-11-05T11:53:36.731Z,27.20
2018-11-05T11:56:04.896Z,25.37
2018-11-05T11:58:33.041Z,27.95
2018-11-05T12:01:01.224Z,23.55
2018-11-05T12:03:29.414Z,26.68
2018-11-05T12:05:57.555Z,23.65
2018-11-05T12:08:25.727Z,25.85
2018-11-05T12:10:53.934Z,26.23
2018-11-05T12:13:22.086Z,25.40
2018-11-05T12:15:50.234Z,28.83
2018-11-05T12:18:18.390Z,24.10
2018-11-05T12:20:46.563Z,24.10
2018-11-05T12:23:14.809Z,22.87
2018-11-05T12:25:42.966Z,25.37
2018-11-05T12:28:11.110Z,23.95
2018-11-05T12:30:39.258Z,24.82
2018-11-05T12:33:07.516Z,23.18
2018-11-05T12:35:35.826Z,25.60
2018-11-05T12:38:04.023Z,24.90
2018-11-05T12:40:32.183Z,24.92
2018-11-05T12:43:00.351Z,24.80
2018-11-05T12:45:28.503Z,22.40
2018-11-05T12:47:56.676Z,24.23
2018-11-05T12:50:24.954Z,25.85
2018-11-05T12:52:55.029Z,25.82
2018-11-05T12:55:23.347Z,27.00
2018-11-05T12:57:51.494Z,26.37
2018-11-05T13:00:21.309Z,25.12
2018-11-05T13:02:54.597Z,26.93
2018-11-05T13:05:23.398Z,26.93
2018-11-05T13:07:51.713Z,25.88
2018-11-05T13:10:19.958Z,24.82
2018-11-05T13:12:48.254Z,27.37
2018-11-05T13:15:16.515Z,26.27
2018-11-05T13:17:44.658Z,25.40
2018-11-05T13:20:17.795Z,29.98
2018-11-05T13:22:46.180Z,24.05
2018-11-05T13:25:14.399Z,28.40
2018-11-05T13:27:44.705Z,24.65
2018-11-05T13:30:13.501Z,24.20
2018-11-05T13:32:42.254Z,26.35
2018-11-05T13:35:12.051Z,26.57
2018-11-05T13:37:40.870Z,26.75
2018-11-05T13:40:12.260Z,27.73
2018-11-05T13:42:40.416Z,26.55
2018-11-05T13:45:09.937Z,25.52
2018-11-05T13:47:38.902Z,28.98
2018-11-05T13:50:06.876Z,26.40
2018-11-05T13:52:35.102Z,25.90
2018-11-05T13:55:03.370Z,27.02
2018-11-05T13:57:31.439Z,25.62
2018-11-05T13:59:59.532Z,27.65
2018-11-05T14:02:27.714Z,28.87
2018-11-05T14:04:55.850Z,28.52
2018-11-05T14:07:24.000Z,26.60
2018-11-05T14:09:52.183Z,27.85
2018-11-05T14:12:20.335Z,27.77
2018-11-05T14:14:48.492Z,31.30
2018-11-05T14:17:16.660Z,31.07
2018-11-05T14:19:44.823Z,26.70
2018-11-05T14:22:13.042Z,28.17
2018-11-05T14:24:41.155Z,29.72
2018-11-05T14:27:09.306Z,27.10
2018-11-05T14:29:38.311Z,27.37
2018-11-05T14:32:06.421Z,29.70
2018-11-05T14:34:34.495Z,26.73
2018-11-05T14:37:02.708Z,29.55
2018-11-05T14:39:30.860Z,27.35
2018-11-05T14:41:59.095Z,26.57
2018-11-05T14:44:27.235Z,29.90
2018-11-05T14:46:55.393Z,28.73
2018-11-05T14:49:23.561Z,27.40
2018-11-05T14:51:51.752Z,27.73
2018-11-05T14:54:19.898Z,26.42
2018-11-05T14:56:48.887Z,26.70
2018-11-05T14:59:17.054Z,25.60
2018-11-05T15:01:45.656Z,25.82
2018-11-05T15:04:14.501Z,27.30
2018-11-05T15:06:43.337Z,27.64
2018-11-05T15:09:13.046Z,25.08
2018-11-05T15:11:41.239Z,26.97
2018-11-05T15:14:09.478Z,27.77
2018-11-05T15:16:37.634Z,26.68
2018-11-05T15:19:06.476Z,25.55
2018-11-05T15:21:34.354Z,25.65
2018-11-05T15:24:02.522Z,26.05
2018-11-05T15:26:30.690Z,26.27
2018-11-05T15:28:58.817Z,34.03
2018-11-05T15:31:27.917Z,28.27
2018-11-05T15:33:56.223Z,26.33
2018-11-05T15:36:24.251Z,27.37
2018-11-05T15:38:52.420Z,27.13
2018-11-05T15:41:20.582Z,28.38
2018-11-05T15:43:48.818Z,26.93
2018-11-05T15:46:16.978Z,26.12
2018-11-05T15:48:45.119Z,32.70
2018-11-05T15:51:13.436Z,28.80
2018-11-05T15:53:41.613Z,30.35
2018-11-05T15:56:09.566Z,26.77
2018-11-05T15:58:37.846Z,27.60
2018-11-05T16:01:06.608Z,29.35
2018-11-05T16:03:34.755Z,28.87
2018-11-05T16:06:03.474Z,27.65
2018-11-05T16:08:31.693Z,26.82
2018-11-05T16:10:59.864Z,26.25
2018-11-05T16:13:28.918Z,28.02
2018-11-05T16:15:57.082Z,31.12
2018-11-05T16:18:25.219Z,26.62
2018-11-05T16:20:53.448Z,30.48
2018-11-05T16:23:21.645Z,29.35
2018-11-05T16:25:49.846Z,26.35
2018-11-05T16:28:17.975Z,24.70
2018-11-05T16:30:46.233Z,24.30
2018-11-05T16:33:14.282Z,28.60
2018-11-05T16:35:43.106Z,25.97
2018-11-05T16:38:11.151Z,24.32
2018-11-05T16:40:39.313Z,26.02
2018-11-05T16:43:07.503Z,25.17
2018-11-05T16:45:35.694Z,35.38
2018-11-05T16:48:03.823Z,28.67
2018-11-05T16:50:32.078Z,30.30
2018-11-05T16:53:00.231Z,30.32
2018-11-05T16:55:28.518Z,26.62
2018-11-05T16:57:56.738Z,30.10
2018-11-05T17:00:24.815Z,34.35
2018-11-05T17:02:53.590Z,28.25
2018-11-05T17:05:21.726Z,30.68
2018-11-05T17:07:49.854Z,27.42
2018-11-05T17:10:18.039Z,33.83
2018-11-05T17:12:46.302Z,37.50
2018-11-05T17:15:15.607Z,26.73
2018-11-05T17:17:44.113Z,23.38
2018-11-05T17:20:14.340Z,30.80
2018-11-05T17:22:42.897Z,35.70
2018-11-05T17:25:12.299Z,25.92
2018-11-05T17:27:40.781Z,26.40
2018-11-05T17:30:11.821Z,23.05
2018-11-05T17:32:40.262Z,26.35
2018-11-05T17:35:08.469Z,26.75
2018-11-05T17:37:36.624Z,30.12
2018-11-05T17:40:06.283Z,22.05
2018-11-05T17:42:34.434Z,23.42
2018-11-05T17:45:02.620Z,32.55
2018-11-05T17:47:30.914Z,35.35
2018-11-05T17:49:59.097Z,29.42
2018-11-05T17:52:27.231Z,28.10
2018-11-05T17:54:55.438Z,22.77
2018-11-05T17:57:23.589Z,23.85
2018-11-05T17:59:51.736Z,24.95
2018-11-05T18:02:24.965Z,20.27
2018-11-05T18:04:54.845Z,33.73
2018-11-05T18:07:23.525Z,24.18
2018-11-05T18:09:52.423Z,24.80
2018-11-05T18:12:20.566Z,26.20
2018-11-05T18:14:48.714Z,33.10
2018-11-05T18:17:16.847Z,27.55
2018-11-05T18:19:45.006Z,25.92
2018-11-05T18:22:13.297Z,30.02
2018-11-05T18:24:41.772Z,24.87
2018-11-05T18:27:09.965Z,29.45
2018-11-05T18:29:38.393Z,29.80
2018-11-05T18:32:06.725Z,25.30
2018-11-05T18:34:34.975Z,22.42
2018-11-05T18:37:03.127Z,18.77
2018-11-05T18:39:31.268Z,19.90
2018-11-05T18:41:59.447Z,23.42
2018-11-05T18:44:27.609Z,24.00
2018-11-05T18:46:55.754Z,23.97
2018-11-05T18:49:24.926Z,22.35
2018-11-05T18:51:53.249Z,22.20
2018-11-05T18:54:21.485Z,23.40
2018-11-05T18:56:49.709Z,32.47
2018-11-05T18:59:17.940Z,26.05
2018-11-05T19:01:46.102Z,24.20
2018-11-05T19:04:14.388Z,24.12
2018-11-05T19:06:44.297Z,30.70
2018-11-05T19:09:12.556Z,24.07
2018-11-05T19:11:41.258Z,36.05
2018-11-05T19:14:09.485Z,28.42
2018-11-05T19:16:37.701Z,24.10
2018-11-05T19:19:08.975Z,25.05
2018-11-05T19:21:37.110Z,27.05
2018-11-05T19:24:05.541Z,24.57
2018-11-05T19:26:33.575Z,19.92
2018-11-05T19:29:01.854Z,33.90
2018-11-05T19:31:30.012Z,47.23
2018-11-05T19:33:58.278Z,214.85
2018-11-05T19:36:26.321Z,151.42
2018-11-05T19:38:54.478Z,268.17
2018-11-05T19:41:22.711Z,58.10
2018-11-05T19:43:50.808Z,43.73
2018-11-05T19:46:18.939Z,27.32
2018-11-05T19:48:49.203Z,29.93
2018-11-05T19:51:17.462Z,27.42
2018-11-05T19:53:45.663Z,31.15
2018-11-05T19:56:14.041Z,19.63
2018-11-05T19:58:41.945Z,30.48
2018-11-05T20:01:10.665Z,24.73
2018-11-05T20:03:38.876Z,24.18
2018-11-05T20:06:07.096Z,24.23
2018-11-05T20:08:35.218Z,26.85
2018-11-05T20:11:03.370Z,25.62
2018-11-05T20:13:31.505Z,15.95
2018-11-05T20:15:59.718Z,16.93
2018-11-05T20:18:27.968Z,17.87
2018-11-05T20:20:56.028Z,19.23
2018-11-05T20:23:24.741Z,23.95
2018-11-05T20:25:52.899Z,35.13
2018-11-05T20:28:21.102Z,35.55
2018-11-05T20:30:49.205Z,25.52
2018-11-05T20:33:17.559Z,27.58
2018-11-05T20:35:45.607Z,21.20
2018-11-05T20:38:14.303Z,18.40
2018-11-05T20:40:42.486Z,21.17
2018-11-05T20:43:10.585Z,29.72
2018-11-05T20:45:38.799Z,29.52
2018-11-05T20:48:06.982Z,30.10
2018-11-05T20:50:35.173Z,28.95
2018-11-05T20:53:03.346Z,35.10
2018-11-05T20:55:31.510Z,50.17
2018-11-05T20:57:59.681Z,56.45
2018-11-05T21:00:27.905Z,69.90
2018-11-05T21:02:56.052Z,48.52
2018-11-05T21:05:24.201Z,55.60
2018-11-05T21:07:52.611Z,46.30
2018-11-05T21:10:20.859Z,54.83
2018-11-05T21:12:49.007Z,44.55
2018-11-05T21:15:18.447Z,44.80
2018-11-05T21:17:47.534Z,82.22
2018-11-05T21:20:15.901Z,70.10
2018-11-05T21:22:44.556Z,53.38
2018-11-05T21:25:12.663Z,66.30
2018-11-05T21:27:41.535Z,70.85
2018-11-05T21:30:11.590Z,46.05
2018-11-05T21:32:39.866Z,42.95
2018-11-05T21:35:10.019Z,42.62
2018-11-05T21:37:39.153Z,37.10
2018-11-05T21:40:08.241Z,37.50
2018-11-05T21:42:36.833Z,36.88
2018-11-05T21:45:07.046Z,36.50
2018-11-05T21:47:35.341Z,54.25
2018-11-05T21:50:04.159Z,61.30
2018-11-05T21:52:32.296Z,84.62
2018-11-05T21:55:00.439Z,108.45
2018-11-05T21:57:28.579Z,123.28
2018-11-05T21:59:56.754Z,111.40
2018-11-05T22:02:24.915Z,199.38
2018-11-05T22:04:53.071Z,105.07
2018-11-05T22:07:21.281Z,94.58
2018-11-05T22:09:49.949Z,103.42
2018-11-05T22:12:18.131Z,99.62
2018-11-05T22:14:46.359Z,75.72
2018-11-05T22:17:14.521Z,140.25
2018-11-05T22:19:42.702Z,168.37
2018-11-05T22:22:10.901Z,146.10
2018-11-05T22:24:39.078Z,286.07
2018-11-05T22:27:08.149Z,140.62
2018-11-05T22:29:36.302Z,84.52
2018-11-05T22:32:04.718Z,71.05
2018-11-05T22:34:33.075Z,78.52
2018-11-05T22:37:01.225Z,47.40
2018-11-05T22:39:29.376Z,58.53
2018-11-05T22:41:57.553Z,42.17
2018-11-05T22:44:25.692Z,41.18
2018-11-05T22:46:53.847Z,29.33
2018-11-05T22:49:22.068Z,34.90
2018-11-05T22:51:50.275Z,63.23
2018-11-05T22:54:18.434Z,54.70
2018-11-05T22:56:47.355Z,83.33
2018-11-05T22:59:15.567Z,52.40
2018-11-05T23:01:49.083Z,46.73
2018-11-05T23:04:17.317Z,49.18
2018-11-05T23:06:45.469Z,38.70
2018-11-05T23:09:13.634Z,53.83
2018-11-05T23:11:42.319Z,65.67
2018-11-05T23:14:10.487Z,64.47
2018-11-05T23:16:39.119Z,85.60
2018-11-05T23:19:09.033Z,39.80
2018-11-05T23:21:37.502Z,42.07
2018-11-05T23:24:05.882Z,63.67
2018-11-05T23:26:34.028Z,85.93
2018-11-05T23:29:02.178Z,114.20
2018-11-05T23:31:30.441Z,94.17
2018-11-05T23:33:58.606Z,90.63
2018-11-05T23:36:27.042Z,50.80
2018-11-05T23:38:55.379Z,116.57
2018-11-05T23:41:25.060Z,105.07
2018-11-05T23:43:54.898Z,86.90
2018-11-05T23:46:24.213Z,102.62
2018-11-05T23:48:52.342Z,143.00
2018-11-05T23:51:20.489Z,116.60
2018-11-05T23:53:48.645Z,92.92
2018-11-05T23:56:16.781Z,65.97
2018-11-05T23:58:44.932Z,73.93
